createdAt,value
2023-01-17T00:00:22.178Z,972.45
2023-01-17T00:01:24.704Z,972.42
2023-01-17T00:02:27.541Z,972.49
2023-01-17T00:03:30.308Z,972.44
2023-01-17T00:04:33.590Z,972.49
2023-01-17T00:05:36.524Z,972.49
2023-01-17T00:06:39.194Z,972.47
2023-01-17T00:07:42.399Z,972.48
2023-01-17T00:08:45.122Z,972.47
2023-01-17T00:09:47.865Z,972.55
2023-01-17T00:10:50.563Z,972.49
2023-01-17T00:11:53.282Z,972.51
2023-01-17T00:12:55.994Z,972.55
2023-01-17T00:13:58.659Z,972.58
2023-01-17T00:15:01.411Z,972.52
2023-01-17T00:16:04.274Z,972.6
2023-01-17T00:17:06.955Z,972.54
2023-01-17T00:18:09.692Z,972.58
2023-01-17T00:19:12.355Z,972.56
2023-01-17T00:20:15.017Z,972.57
2023-01-17T00:21:17.714Z,972.54
2023-01-17T00:22:20.446Z,972.54
2023-01-17T00:23:23.094Z,972.55
2023-01-17T00:24:25.822Z,972.53
2023-01-17T00:25:28.567Z,972.57
2023-01-17T00:26:31.299Z,972.54
2023-01-17T00:27:33.935Z,972.59
2023-01-17T00:28:36.663Z,972.54
2023-01-17T00:29:39.330Z,972.55
2023-01-17T00:30:42.560Z,972.59
2023-01-17T00:31:45.422Z,972.6
2023-01-17T00:32:48.113Z,972.61
2023-01-17T00:33:50.769Z,972.58
2023-01-17T00:34:53.427Z,972.61
2023-01-17T00:35:56.135Z,972.6
2023-01-17T00:36:58.824Z,972.65
2023-01-17T00:38:01.814Z,972.58
2023-01-17T00:39:04.453Z,972.62
2023-01-17T00:40:07.768Z,972.59
2023-01-17T00:41:10.494Z,972.57
2023-01-17T00:42:13.185Z,972.56
2023-01-17T00:43:15.878Z,972.54
2023-01-17T00:44:19.353Z,972.57
2023-01-17T00:45:21.973Z,972.63
2023-01-17T00:46:24.877Z,972.65
2023-01-17T00:47:27.598Z,972.63
2023-01-17T00:48:30.875Z,972.62
2023-01-17T00:49:33.582Z,972.57
2023-01-17T00:50:36.256Z,972.56
2023-01-17T00:51:38.981Z,972.54
2023-01-17T00:52:41.691Z,972.54
2023-01-17T00:53:44.392Z,972.47
2023-01-17T00:54:47.115Z,972.47
2023-01-17T00:55:49.855Z,972.46
2023-01-17T00:56:52.579Z,972.5
2023-01-17T00:57:55.248Z,972.48
2023-01-17T00:58:57.951Z,972.5
2023-01-17T01:00:01.284Z,972.51
2023-01-17T01:01:04.548Z,972.42
2023-01-17T01:02:07.812Z,972.41
2023-01-17T01:03:10.417Z,972.44
2023-01-17T01:04:13.109Z,972.35
2023-01-17T01:05:16.594Z,972.35
2023-01-17T01:06:19.225Z,972.35
2023-01-17T01:07:21.891Z,972.36
2023-01-17T01:08:24.614Z,972.4
2023-01-17T01:09:27.298Z,972.38
2023-01-17T01:10:29.968Z,972.4
2023-01-17T01:11:32.678Z,972.44
2023-01-17T01:12:35.444Z,972.43
2023-01-17T01:13:38.122Z,972.44
2023-01-17T01:14:40.804Z,972.41
2023-01-17T01:15:43.479Z,972.44
2023-01-17T01:16:46.604Z,972.52
2023-01-17T01:17:49.236Z,972.52
2023-01-17T01:18:51.879Z,972.56
2023-01-17T01:19:54.604Z,972.54
2023-01-17T01:20:57.267Z,972.58
2023-01-17T01:21:59.971Z,972.6
2023-01-17T01:23:02.670Z,972.56
2023-01-17T01:24:05.347Z,972.56
2023-01-17T01:25:08.065Z,972.57
2023-01-17T01:26:10.738Z,972.62
2023-01-17T01:27:13.509Z,972.61
2023-01-17T01:28:16.228Z,972.67
2023-01-17T01:29:18.920Z,972.65
2023-01-17T01:30:21.619Z,972.66
2023-01-17T01:31:24.641Z,972.63
2023-01-17T01:32:27.274Z,972.7
2023-01-17T01:33:29.982Z,972.65
2023-01-17T01:34:32.652Z,972.68
2023-01-17T01:35:35.333Z,972.66
2023-01-17T01:36:38.033Z,972.78
2023-01-17T01:37:40.728Z,972.8
2023-01-17T01:38:43.404Z,972.8
2023-01-17T01:39:46.297Z,972.8
2023-01-17T01:40:49.024Z,972.72
2023-01-17T01:41:51.741Z,972.75
2023-01-17T01:42:54.486Z,972.83
2023-01-17T01:43:57.223Z,972.84
2023-01-17T01:44:59.954Z,972.72
2023-01-17T01:46:02.876Z,972.72
2023-01-17T01:47:05.547Z,972.72
2023-01-17T01:48:08.248Z,972.73
2023-01-17T01:49:10.934Z,972.69
2023-01-17T01:50:13.639Z,972.75
2023-01-17T01:51:16.389Z,972.72
2023-01-17T01:52:19.063Z,972.79
2023-01-17T01:53:21.753Z,972.78
2023-01-17T01:54:24.395Z,972.74
2023-01-17T01:55:27.677Z,972.68
2023-01-17T01:56:30.332Z,972.68
2023-01-17T01:57:33.251Z,972.69
2023-01-17T01:58:35.944Z,972.71
2023-01-17T01:59:38.690Z,972.72
2023-01-17T02:00:41.659Z,972.72
2023-01-17T02:01:44.974Z,972.65
2023-01-17T02:02:47.645Z,972.7
2023-01-17T02:03:50.535Z,972.71
2023-01-17T02:04:53.286Z,972.67
2023-01-17T02:05:55.956Z,972.67
2023-01-17T02:06:58.662Z,972.67
2023-01-17T02:08:01.949Z,972.64
2023-01-17T02:09:04.609Z,972.64
2023-01-17T02:10:07.312Z,972.66
2023-01-17T02:11:10.004Z,972.59
2023-01-17T02:12:12.737Z,972.61
2023-01-17T02:13:15.374Z,972.6
2023-01-17T02:14:18.089Z,972.57
2023-01-17T02:15:21.660Z,972.53
2023-01-17T02:16:24.511Z,972.6
2023-01-17T02:17:27.769Z,972.6
2023-01-17T02:18:30.402Z,972.61
2023-01-17T02:19:34.060Z,972.64
2023-01-17T02:20:36.660Z,972.55
2023-01-17T02:21:39.375Z,972.6
2023-01-17T02:22:42.034Z,972.52
2023-01-17T02:23:44.700Z,972.53
2023-01-17T02:24:47.393Z,972.63
2023-01-17T02:25:50.086Z,972.59
2023-01-17T02:26:52.803Z,972.54
2023-01-17T02:27:55.454Z,972.6
2023-01-17T02:28:58.160Z,972.58
2023-01-17T02:30:00.887Z,972.54
2023-01-17T02:31:03.594Z,972.59
2023-01-17T02:32:06.208Z,972.51
2023-01-17T02:33:09.524Z,972.55
2023-01-17T02:34:12.238Z,972.53
2023-01-17T02:35:14.972Z,972.5
2023-01-17T02:36:17.642Z,972.55
2023-01-17T02:37:20.318Z,972.54
2023-01-17T02:38:23.040Z,972.55
2023-01-17T02:39:25.687Z,972.51
2023-01-17T02:40:28.378Z,972.6
2023-01-17T02:41:31.308Z,972.56
2023-01-17T02:42:33.982Z,972.56
2023-01-17T02:43:36.668Z,972.56
2023-01-17T02:44:39.344Z,972.55
2023-01-17T02:45:42.165Z,972.49
2023-01-17T02:46:44.924Z,972.52
2023-01-17T02:47:47.651Z,972.52
2023-01-17T02:48:50.308Z,972.54
2023-01-17T02:49:52.974Z,972.54
2023-01-17T02:50:55.639Z,972.52
2023-01-17T02:51:58.262Z,972.52
2023-01-17T02:53:00.938Z,972.56
2023-01-17T02:54:03.628Z,972.61
2023-01-17T02:55:06.371Z,972.59
2023-01-17T02:56:09.042Z,972.58
2023-01-17T02:57:11.956Z,972.55
2023-01-17T02:58:14.662Z,972.58
2023-01-17T02:59:17.364Z,972.57
2023-01-17T03:00:20.104Z,972.5
2023-01-17T03:01:23.468Z,972.5
2023-01-17T03:02:26.696Z,972.49
2023-01-17T03:03:29.344Z,972.41
2023-01-17T03:04:32.053Z,972.45
2023-01-17T03:05:34.725Z,972.53
2023-01-17T03:06:37.411Z,972.55
2023-01-17T03:07:40.171Z,972.49
2023-01-17T03:08:43.204Z,972.52
2023-01-17T03:09:45.909Z,972.51
2023-01-17T03:10:48.547Z,972.49
2023-01-17T03:11:51.187Z,972.44
2023-01-17T03:12:54.469Z,972.48
2023-01-17T03:13:57.144Z,972.46
2023-01-17T03:14:59.847Z,972.44
2023-01-17T03:16:02.554Z,972.35
2023-01-17T03:17:05.280Z,972.35
2023-01-17T03:18:08.603Z,972.28
2023-01-17T03:19:11.290Z,972.32
2023-01-17T03:20:13.947Z,972.18
2023-01-17T03:21:16.594Z,972.28
2023-01-17T03:22:19.497Z,972.23
2023-01-17T03:23:22.140Z,972.27
2023-01-17T03:24:24.840Z,972.2
2023-01-17T03:25:27.555Z,972.27
2023-01-17T03:26:30.195Z,972.24
2023-01-17T03:27:32.898Z,972.24
2023-01-17T03:28:35.656Z,972.21
2023-01-17T03:29:38.340Z,972.16
2023-01-17T03:30:41.210Z,972.2
2023-01-17T03:31:44.091Z,972.2
2023-01-17T03:32:46.788Z,972.22
2023-01-17T03:33:49.600Z,972.19
2023-01-17T03:34:52.319Z,972.26
2023-01-17T03:35:55.005Z,972.21
2023-01-17T03:36:57.652Z,972.2
2023-01-17T03:38:00.324Z,972.18
2023-01-17T03:39:03.079Z,972.15
2023-01-17T03:40:06.378Z,972.19
2023-01-17T03:41:09.058Z,972.18
2023-01-17T03:42:11.725Z,972.13
2023-01-17T03:43:14.439Z,972.12
2023-01-17T03:44:17.142Z,972.15
2023-01-17T03:45:19.820Z,972.13
2023-01-17T03:46:22.556Z,972.15
2023-01-17T03:47:25.252Z,972.15
2023-01-17T03:48:27.994Z,972.2
2023-01-17T03:49:30.697Z,972.15
2023-01-17T03:50:33.407Z,972.23
2023-01-17T03:51:36.071Z,972.26
2023-01-17T03:52:38.718Z,972.3
2023-01-17T03:53:41.475Z,972.35
2023-01-17T03:54:44.178Z,972.34
2023-01-17T03:55:46.807Z,972.36
2023-01-17T03:56:49.660Z,972.36
2023-01-17T03:57:52.354Z,972.4
2023-01-17T03:58:55.079Z,972.44
2023-01-17T03:59:57.797Z,972.4
2023-01-17T04:01:00.850Z,972.41
2023-01-17T04:02:04.178Z,972.39
2023-01-17T04:03:06.831Z,972.37
2023-01-17T04:04:09.791Z,972.37
2023-01-17T04:05:12.716Z,972.36
2023-01-17T04:06:15.394Z,972.35
2023-01-17T04:07:18.080Z,972.31
2023-01-17T04:08:20.748Z,972.21
2023-01-17T04:09:23.450Z,972.31
2023-01-17T04:10:26.135Z,972.28
2023-01-17T04:11:28.838Z,972.29
2023-01-17T04:12:31.578Z,972.26
2023-01-17T04:13:34.230Z,972.32
2023-01-17T04:14:36.901Z,972.28
2023-01-17T04:15:39.567Z,972.24
2023-01-17T04:16:42.747Z,972.23
2023-01-17T04:17:45.537Z,972.19
2023-01-17T04:18:48.286Z,972.23
2023-01-17T04:19:51.021Z,972.23
2023-01-17T04:20:53.760Z,972.21
2023-01-17T04:21:56.691Z,972.21
2023-01-17T04:22:59.362Z,972.16
2023-01-17T04:24:02.033Z,972.21
2023-01-17T04:25:05.320Z,972.21
2023-01-17T04:26:08.440Z,972.19
2023-01-17T04:27:12.642Z,972.16
2023-01-17T04:28:15.197Z,972.24
2023-01-17T04:29:17.867Z,972.22
2023-01-17T04:30:20.595Z,972.22
2023-01-17T04:31:23.456Z,972.22
2023-01-17T04:32:26.379Z,972.25
2023-01-17T04:33:29.273Z,972.23
2023-01-17T04:34:31.928Z,972.24
2023-01-17T04:35:34.663Z,972.16
2023-01-17T04:36:37.438Z,972.11
2023-01-17T04:37:40.386Z,972.15
2023-01-17T04:38:43.049Z,972.16
2023-01-17T04:39:45.713Z,972.13
2023-01-17T04:40:48.425Z,972.16
2023-01-17T04:41:51.137Z,972.13
2023-01-17T04:42:53.796Z,972.12
2023-01-17T04:43:56.485Z,972.18
2023-01-17T04:44:59.176Z,972.15
2023-01-17T04:46:02.169Z,972.14
2023-01-17T04:47:04.866Z,972.12
2023-01-17T04:48:08.822Z,972.1
2023-01-17T04:49:11.432Z,972.11
2023-01-17T04:50:14.119Z,972.13
2023-01-17T04:51:16.876Z,972.13
2023-01-17T04:52:20.184Z,972.09
2023-01-17T04:53:22.807Z,972.07
2023-01-17T04:54:25.510Z,972.02
2023-01-17T04:55:28.460Z,972.04
2023-01-17T04:56:31.330Z,972.02
2023-01-17T04:57:34.000Z,972.02
2023-01-17T04:58:36.697Z,971.97
2023-01-17T04:59:39.303Z,971.94
2023-01-17T05:00:42.096Z,971.91
2023-01-17T05:01:44.934Z,971.94
2023-01-17T05:02:48.022Z,971.87
2023-01-17T05:03:50.774Z,971.86
2023-01-17T05:04:53.421Z,971.84
2023-01-17T05:05:56.113Z,971.81
2023-01-17T05:06:58.857Z,971.85
2023-01-17T05:08:01.627Z,971.86
2023-01-17T05:09:04.335Z,971.83
2023-01-17T05:10:07.024Z,971.79
2023-01-17T05:11:09.696Z,971.83
2023-01-17T05:12:12.350Z,971.8
2023-01-17T05:13:15.009Z,971.64
2023-01-17T05:14:18.756Z,971.67
2023-01-17T05:15:21.388Z,971.69
2023-01-17T05:16:24.048Z,971.6
2023-01-17T05:17:27.306Z,971.55
2023-01-17T05:18:30.207Z,971.5
2023-01-17T05:19:32.885Z,971.51
2023-01-17T05:20:35.586Z,971.5
2023-01-17T05:21:38.289Z,971.42
2023-01-17T05:22:40.992Z,971.46
2023-01-17T05:23:43.935Z,971.41
2023-01-17T05:24:46.661Z,971.38
2023-01-17T05:25:49.373Z,971.42
2023-01-17T05:26:52.065Z,971.39
2023-01-17T05:27:54.723Z,971.39
2023-01-17T05:28:57.487Z,971.38
2023-01-17T05:30:00.259Z,971.4
2023-01-17T05:31:03.143Z,971.34
2023-01-17T05:32:05.826Z,971.3
2023-01-17T05:33:08.571Z,971.29
2023-01-17T05:34:11.296Z,971.29
2023-01-17T05:35:14.042Z,971.26
2023-01-17T05:36:16.711Z,971.32
2023-01-17T05:37:19.388Z,971.23
2023-01-17T05:38:22.343Z,971.27
2023-01-17T05:39:25.307Z,971.23
2023-01-17T05:40:27.961Z,971.24
2023-01-17T05:41:30.613Z,971.22
2023-01-17T05:42:33.221Z,971.24
2023-01-17T05:43:35.899Z,971.19
2023-01-17T05:44:38.556Z,971.09
2023-01-17T05:45:41.236Z,971.16
2023-01-17T05:46:43.903Z,971.13
2023-01-17T05:47:46.604Z,971.11
2023-01-17T05:48:49.294Z,971.15
2023-01-17T05:49:51.988Z,971.11
2023-01-17T05:50:54.698Z,971.12
2023-01-17T05:51:57.367Z,971.19
2023-01-17T05:53:00.041Z,971.11
2023-01-17T05:54:02.787Z,971.13
2023-01-17T05:55:05.577Z,971.13
2023-01-17T05:56:08.265Z,971.13
2023-01-17T05:57:11.005Z,971.06
2023-01-17T05:58:13.687Z,971.05
2023-01-17T05:59:36.823Z,971.02
2023-01-17T06:00:37.755Z,970.95
2023-01-17T06:01:40.353Z,970.96
2023-01-17T06:02:43.221Z,970.91
2023-01-17T06:03:45.925Z,970.88
2023-01-17T06:04:48.850Z,970.83
2023-01-17T06:05:51.521Z,970.87
2023-01-17T06:06:54.178Z,970.83
2023-01-17T06:07:56.832Z,970.8
2023-01-17T06:08:59.663Z,970.82
2023-01-17T06:10:02.449Z,970.77
2023-01-17T06:11:05.237Z,970.73
2023-01-17T06:12:07.896Z,970.77
2023-01-17T06:13:10.604Z,970.73
2023-01-17T06:14:13.230Z,970.68
2023-01-17T06:15:15.928Z,970.69
2023-01-17T06:16:18.808Z,970.7
2023-01-17T06:17:21.447Z,970.67
2023-01-17T06:18:24.157Z,970.68
2023-01-17T06:19:26.812Z,970.67
2023-01-17T06:20:29.471Z,970.63
2023-01-17T06:21:32.155Z,970.61
2023-01-17T06:22:34.848Z,970.59
2023-01-17T06:23:37.519Z,970.61
2023-01-17T06:24:40.215Z,970.6
2023-01-17T06:25:42.926Z,970.52
2023-01-17T06:26:45.655Z,970.53
2023-01-17T06:27:48.363Z,970.54
2023-01-17T06:28:51.606Z,970.53
2023-01-17T06:29:54.270Z,970.52
2023-01-17T06:30:57.043Z,970.47
2023-01-17T06:32:02.081Z,970.46
2023-01-17T06:33:04.559Z,970.51
2023-01-17T06:34:07.790Z,970.48
2023-01-17T06:35:10.443Z,970.51
2023-01-17T06:36:13.100Z,970.48
2023-01-17T06:37:15.744Z,970.47
2023-01-17T06:38:18.656Z,970.42
2023-01-17T06:39:21.301Z,970.4
2023-01-17T06:40:23.971Z,970.34
2023-01-17T06:41:26.660Z,970.36
2023-01-17T06:42:29.399Z,970.37
2023-01-17T06:43:32.058Z,970.34
2023-01-17T06:44:34.713Z,970.38
2023-01-17T06:45:37.484Z,970.32
2023-01-17T06:46:40.502Z,970.36
2023-01-17T06:47:43.182Z,970.35
2023-01-17T06:48:45.921Z,970.29
2023-01-17T06:49:52.136Z,970.31
2023-01-17T06:50:54.625Z,970.34
2023-01-17T06:51:57.302Z,970.41
2023-01-17T06:53:00.018Z,970.42
2023-01-17T06:54:12.687Z,970.4
2023-01-17T06:55:14.956Z,970.38
2023-01-17T06:56:17.587Z,970.39
2023-01-17T06:57:20.310Z,970.45
2023-01-17T06:58:22.978Z,970.42
2023-01-17T06:59:26.238Z,970.42
2023-01-17T07:00:30.024Z,970.4
2023-01-17T07:01:33.199Z,970.4
2023-01-17T07:02:35.794Z,970.37
2023-01-17T07:03:38.616Z,970.37
2023-01-17T07:04:41.282Z,970.33
2023-01-17T07:05:43.928Z,970.33
2023-01-17T07:06:46.626Z,970.33
2023-01-17T07:07:49.302Z,970.35
2023-01-17T07:08:51.970Z,970.33
2023-01-17T07:09:54.629Z,970.3
2023-01-17T07:10:59.886Z,970.33
2023-01-17T07:12:02.460Z,970.29
2023-01-17T07:13:05.196Z,970.24
2023-01-17T07:14:07.913Z,970.19
2023-01-17T07:15:10.662Z,970.22
2023-01-17T07:16:13.927Z,970.15
2023-01-17T07:17:16.519Z,970.26
2023-01-17T07:18:19.222Z,970.2
2023-01-17T07:19:21.869Z,970.25
2023-01-17T07:20:25.122Z,970.27
2023-01-17T07:21:27.786Z,970.26
2023-01-17T07:22:30.446Z,970.23
2023-01-17T07:23:33.146Z,970.26
2023-01-17T07:24:35.790Z,970.24
2023-01-17T07:25:38.433Z,970.23
2023-01-17T07:26:41.204Z,970.29
2023-01-17T07:27:43.912Z,970.24
2023-01-17T07:28:46.618Z,970.2
2023-01-17T07:29:49.338Z,970.22
2023-01-17T07:30:51.997Z,970.28
2023-01-17T07:31:54.659Z,970.34
2023-01-17T07:32:57.283Z,970.29
2023-01-17T07:33:59.941Z,970.31
2023-01-17T07:35:02.880Z,970.39
2023-01-17T07:36:05.512Z,970.41
2023-01-17T07:37:08.191Z,970.41
2023-01-17T07:38:10.899Z,970.41
2023-01-17T07:39:13.561Z,970.39
2023-01-17T07:40:16.804Z,970.43
2023-01-17T07:41:19.475Z,970.39
2023-01-17T07:42:24.721Z,970.31
2023-01-17T07:43:27.192Z,970.35
2023-01-17T07:44:30.033Z,970.37
2023-01-17T07:45:32.781Z,970.39
2023-01-17T07:46:35.720Z,970.35
2023-01-17T07:47:38.356Z,970.4
2023-01-17T07:48:41.039Z,970.38
2023-01-17T07:49:43.779Z,970.39
2023-01-17T07:50:46.443Z,970.37
2023-01-17T07:51:49.119Z,970.34
2023-01-17T07:52:51.787Z,970.36
2023-01-17T07:53:54.481Z,970.33
2023-01-17T07:54:57.374Z,970.37
2023-01-17T07:56:00.076Z,970.36
2023-01-17T07:57:02.791Z,970.33
2023-01-17T07:58:05.487Z,970.27
2023-01-17T07:59:08.116Z,970.26
2023-01-17T08:00:11.079Z,970.25
2023-01-17T08:01:14.296Z,970.23
2023-01-17T08:02:16.913Z,970.22
2023-01-17T08:03:19.691Z,970.17
2023-01-17T08:04:22.349Z,970.21
2023-01-17T08:05:25.027Z,970.19
2023-01-17T08:06:27.791Z,970.17
2023-01-17T08:07:30.422Z,970.19
2023-01-17T08:08:33.076Z,970.14
2023-01-17T08:09:35.799Z,970.17
2023-01-17T08:10:38.465Z,970.21
2023-01-17T08:11:41.106Z,970.18
2023-01-17T08:12:43.749Z,970.21
2023-01-17T08:13:46.431Z,970.2
2023-01-17T08:14:49.107Z,970.15
2023-01-17T08:15:51.973Z,970.19
2023-01-17T08:16:54.632Z,970.08
2023-01-17T08:17:57.273Z,970.13
2023-01-17T08:18:59.996Z,970.08
2023-01-17T08:20:02.671Z,970.08
2023-01-17T08:21:05.339Z,970.03
2023-01-17T08:22:08.074Z,970.06
2023-01-17T08:23:10.739Z,970.03
2023-01-17T08:24:13.411Z,970.11
2023-01-17T08:25:16.113Z,970.06
2023-01-17T08:26:18.807Z,970.03
2023-01-17T08:27:21.525Z,970
2023-01-17T08:28:24.188Z,970.09
2023-01-17T08:29:26.854Z,970.05
2023-01-17T08:30:29.552Z,970.12
2023-01-17T08:31:32.605Z,970.14
2023-01-17T08:32:35.317Z,970.06
2023-01-17T08:33:38.456Z,970.04
2023-01-17T08:34:41.263Z,970.02
2023-01-17T08:35:43.902Z,970
2023-01-17T08:36:46.587Z,969.91
2023-01-17T08:37:49.278Z,969.9
2023-01-17T08:38:51.941Z,969.95
2023-01-17T08:39:54.607Z,969.97
2023-01-17T08:40:57.280Z,970.01
2023-01-17T08:42:00.002Z,969.96
2023-01-17T08:43:02.679Z,970.05
2023-01-17T08:44:05.332Z,970
2023-01-17T08:45:07.971Z,969.98
2023-01-17T08:46:10.970Z,969.95
2023-01-17T08:47:13.776Z,969.94
2023-01-17T08:48:16.597Z,969.96
2023-01-17T08:49:19.275Z,969.96
2023-01-17T08:50:21.951Z,969.96
2023-01-17T08:51:24.658Z,969.96
2023-01-17T08:52:27.330Z,969.97
2023-01-17T08:53:30.048Z,969.94
2023-01-17T08:54:32.672Z,969.95
2023-01-17T08:55:35.636Z,969.99
2023-01-17T08:56:38.276Z,969.92
2023-01-17T08:57:40.986Z,969.95
2023-01-17T08:58:43.652Z,969.97
2023-01-17T08:59:46.406Z,969.93
2023-01-17T09:00:49.649Z,969.94
2023-01-17T09:01:53.280Z,969.93
2023-01-17T09:02:55.987Z,969.97
2023-01-17T09:03:58.971Z,970.02
2023-01-17T09:05:01.703Z,970
2023-01-17T09:06:04.382Z,969.97
2023-01-17T09:07:07.324Z,969.95
2023-01-17T09:08:09.992Z,969.92
2023-01-17T09:09:12.707Z,969.92
2023-01-17T09:10:15.433Z,969.96
2023-01-17T09:11:18.201Z,969.91
2023-01-17T09:12:21.467Z,969.96
2023-01-17T09:13:24.134Z,969.99
2023-01-17T09:14:26.843Z,969.93
2023-01-17T09:15:29.559Z,969.88
2023-01-17T09:16:32.539Z,969.92
2023-01-17T09:17:35.275Z,969.87
2023-01-17T09:18:48.020Z,969.93
2023-01-17T09:19:50.411Z,969.9
2023-01-17T09:20:53.097Z,969.92
2023-01-17T09:21:55.795Z,969.9
2023-01-17T09:22:58.513Z,969.93
2023-01-17T09:24:01.185Z,969.91
2023-01-17T09:25:04.011Z,969.93
2023-01-17T09:26:06.696Z,969.9
2023-01-17T09:27:09.420Z,970
2023-01-17T09:28:12.095Z,969.94
2023-01-17T09:29:14.765Z,970.01
2023-01-17T09:30:17.552Z,969.99
2023-01-17T09:31:20.231Z,969.94
2023-01-17T09:32:22.968Z,969.96
2023-01-17T09:33:25.678Z,970.02
2023-01-17T09:34:28.463Z,969.98
2023-01-17T09:35:31.416Z,970.01
2023-01-17T09:36:34.679Z,969.99
2023-01-17T09:37:37.399Z,969.96
2023-01-17T09:38:40.135Z,969.97
2023-01-17T09:39:42.884Z,969.95
2023-01-17T09:40:45.621Z,969.9
2023-01-17T09:41:48.369Z,969.94
2023-01-17T09:42:51.087Z,969.86
2023-01-17T09:43:53.816Z,969.91
2023-01-17T09:44:56.572Z,969.87
2023-01-17T09:46:00.151Z,969.92
2023-01-17T09:47:03.615Z,969.93
2023-01-17T09:48:06.279Z,969.97
2023-01-17T09:49:09.181Z,969.94
2023-01-17T09:50:12.531Z,969.96
2023-01-17T09:51:15.282Z,969.9
2023-01-17T09:52:18.008Z,969.93
2023-01-17T09:53:20.732Z,969.94
2023-01-17T09:54:23.496Z,969.91
2023-01-17T09:55:26.211Z,969.94
2023-01-17T09:56:28.927Z,969.92
2023-01-17T09:57:31.578Z,969.92
2023-01-17T09:58:34.290Z,969.9
2023-01-17T09:59:36.987Z,969.88
2023-01-17T10:00:39.715Z,969.86
2023-01-17T10:01:43.334Z,969.87
2023-01-17T10:02:46.672Z,969.88
2023-01-17T10:03:50.275Z,969.86
2023-01-17T10:04:53.343Z,969.86
2023-01-17T10:05:56.057Z,969.89
2023-01-17T10:06:59.238Z,969.88
2023-01-17T10:08:05.046Z,969.92
2023-01-17T10:09:07.509Z,969.84
2023-01-17T10:10:10.186Z,969.9
2023-01-17T10:11:12.928Z,969.88
2023-01-17T10:12:15.663Z,969.89
2023-01-17T10:13:18.322Z,969.84
2023-01-17T10:14:21.253Z,969.85
2023-01-17T10:15:24.106Z,969.79
2023-01-17T10:16:26.908Z,969.78
2023-01-17T10:17:29.571Z,969.77
2023-01-17T10:18:32.795Z,969.81
2023-01-17T10:19:35.450Z,969.78
2023-01-17T10:20:38.158Z,969.8
2023-01-17T10:21:40.986Z,969.8
2023-01-17T10:22:43.708Z,969.84
2023-01-17T10:23:46.355Z,969.83
2023-01-17T10:24:49.034Z,969.82
2023-01-17T10:25:51.707Z,969.81
2023-01-17T10:26:54.382Z,969.81
2023-01-17T10:27:57.637Z,969.76
2023-01-17T10:29:00.542Z,969.81
2023-01-17T10:30:03.273Z,969.79
2023-01-17T10:31:06.221Z,969.83
2023-01-17T10:32:08.905Z,969.73
2023-01-17T10:33:11.596Z,969.78
2023-01-17T10:34:14.268Z,969.8
2023-01-17T10:35:17.503Z,969.78
2023-01-17T10:36:20.172Z,969.72
2023-01-17T10:37:22.929Z,969.71
2023-01-17T10:38:25.756Z,969.65
2023-01-17T10:39:28.403Z,969.68
2023-01-17T10:40:31.107Z,969.65
2023-01-17T10:41:33.816Z,969.66
2023-01-17T10:42:36.489Z,969.61
2023-01-17T10:43:39.224Z,969.64
2023-01-17T10:44:41.943Z,969.58
2023-01-17T10:45:44.808Z,969.6
2023-01-17T10:46:47.501Z,969.53
2023-01-17T10:47:50.231Z,969.55
2023-01-17T10:48:52.986Z,969.49
2023-01-17T10:49:55.696Z,969.47
2023-01-17T10:50:58.431Z,969.43
2023-01-17T10:52:01.212Z,969.47
2023-01-17T10:53:05.440Z,969.51
2023-01-17T10:54:08.125Z,969.43
2023-01-17T10:55:10.831Z,969.5
2023-01-17T10:56:14.122Z,969.44
2023-01-17T10:57:16.889Z,969.47
2023-01-17T10:58:19.656Z,969.48
2023-01-17T10:59:22.324Z,969.48
2023-01-17T11:00:25.053Z,969.49
2023-01-17T11:01:28.358Z,969.46
2023-01-17T11:02:31.508Z,969.4
2023-01-17T11:03:34.280Z,969.42
2023-01-17T11:04:37.134Z,969.36
2023-01-17T11:05:39.866Z,969.29
2023-01-17T11:06:58.431Z,969.25
2023-01-17T11:08:00.727Z,969.24
2023-01-17T11:09:03.459Z,969.23
2023-01-17T11:10:06.294Z,969.15
2023-01-17T11:11:09.165Z,969.2
2023-01-17T11:12:11.846Z,969.12
2023-01-17T11:13:14.549Z,969.07
2023-01-17T11:14:17.227Z,969.04
2023-01-17T11:15:19.973Z,969.06
2023-01-17T11:16:22.710Z,969.05
2023-01-17T11:17:25.420Z,969.01
2023-01-17T11:18:28.109Z,969.05
2023-01-17T11:19:30.795Z,969.04
2023-01-17T11:20:33.697Z,968.97
2023-01-17T11:21:36.384Z,968.97
2023-01-17T11:22:39.121Z,968.98
2023-01-17T11:23:41.830Z,968.94
2023-01-17T11:24:44.872Z,968.82
2023-01-17T11:25:47.830Z,968.82
2023-01-17T11:26:51.102Z,968.76
2023-01-17T11:27:53.819Z,968.74
2023-01-17T11:28:56.647Z,968.68
2023-01-17T11:29:59.331Z,968.73
2023-01-17T11:31:02.176Z,968.65
2023-01-17T11:32:07.459Z,968.64
2023-01-17T11:33:10.059Z,968.62
2023-01-17T11:34:12.744Z,968.59
2023-01-17T11:35:15.437Z,968.55
2023-01-17T11:36:18.148Z,968.55
2023-01-17T11:37:20.923Z,968.48
2023-01-17T11:38:23.594Z,968.5
2023-01-17T11:39:26.296Z,968.4
2023-01-17T11:40:29.061Z,968.38
2023-01-17T11:41:31.796Z,968.38
2023-01-17T11:42:35.681Z,968.39
2023-01-17T11:43:38.316Z,968.29
2023-01-17T11:44:40.967Z,968.34
2023-01-17T11:45:43.655Z,968.28
2023-01-17T11:46:46.335Z,968.29
2023-01-17T11:47:49.189Z,968.25
2023-01-17T11:48:55.025Z,968.23
2023-01-17T11:49:58.258Z,968.2
2023-01-17T11:51:00.930Z,968.15
2023-01-17T11:52:03.650Z,968.11
2023-01-17T11:53:06.324Z,968.1
2023-01-17T11:54:09.053Z,968.08
2023-01-17T11:55:11.741Z,968.07
2023-01-17T11:56:14.523Z,968.02
2023-01-17T11:57:17.258Z,968.08
2023-01-17T11:58:30.014Z,968.04
2023-01-17T11:59:32.342Z,968.01
2023-01-17T12:00:35.016Z,968
2023-01-17T12:01:37.694Z,968
2023-01-17T12:02:40.395Z,967.92
2023-01-17T12:03:43.362Z,967.92
2023-01-17T12:04:46.194Z,967.93
2023-01-17T12:05:48.890Z,967.87
2023-01-17T12:06:59.028Z,967.86
2023-01-17T12:08:01.326Z,967.84
2023-01-17T12:09:04.638Z,967.88
2023-01-17T12:10:07.362Z,967.8
2023-01-17T12:11:10.059Z,967.78
2023-01-17T12:12:13.387Z,967.84
2023-01-17T12:13:16.141Z,967.82
2023-01-17T12:14:18.842Z,967.8
2023-01-17T12:15:21.553Z,967.82
2023-01-17T12:16:24.226Z,967.82
2023-01-17T12:17:26.909Z,967.77
2023-01-17T12:18:29.602Z,967.77
2023-01-17T12:19:32.408Z,967.71
2023-01-17T12:20:35.119Z,967.71
2023-01-17T12:21:37.805Z,967.68
2023-01-17T12:22:40.528Z,967.63
2023-01-17T12:23:43.248Z,967.67
2023-01-17T12:24:45.939Z,967.65
2023-01-17T12:25:48.687Z,967.69
2023-01-17T12:26:51.398Z,967.66
2023-01-17T12:27:54.153Z,967.63
2023-01-17T12:28:56.902Z,967.61
2023-01-17T12:29:59.575Z,967.59
2023-01-17T12:31:02.608Z,967.59
2023-01-17T12:32:05.365Z,967.55
2023-01-17T12:33:08.105Z,967.58
2023-01-17T12:34:10.809Z,967.6
2023-01-17T12:35:13.713Z,967.6
2023-01-17T12:36:16.515Z,967.56
2023-01-17T12:37:19.222Z,967.52
2023-01-17T12:38:33.522Z,967.49
2023-01-17T12:39:36.007Z,967.48
2023-01-17T12:40:38.651Z,967.47
2023-01-17T12:41:41.356Z,967.38
2023-01-17T12:42:44.069Z,967.3
2023-01-17T12:43:46.814Z,967.3
2023-01-17T12:44:49.596Z,967.33
2023-01-17T12:45:52.289Z,967.37
2023-01-17T12:46:55.272Z,967.32
2023-01-17T12:47:57.961Z,967.37
2023-01-17T12:49:00.622Z,967.4
2023-01-17T12:50:03.411Z,967.3
2023-01-17T12:51:06.067Z,967.32
2023-01-17T12:52:08.773Z,967.4
2023-01-17T12:53:11.467Z,967.31
2023-01-17T12:54:14.420Z,967.37
2023-01-17T12:55:17.112Z,967.35
2023-01-17T12:56:19.784Z,967.33
2023-01-17T12:57:22.479Z,967.28
2023-01-17T12:58:25.185Z,967.35
2023-01-17T12:59:27.983Z,967.35
2023-01-17T13:00:30.843Z,967.33
2023-01-17T13:01:34.039Z,967.33
2023-01-17T13:02:36.794Z,967.28
2023-01-17T13:03:39.494Z,967.3
2023-01-17T13:04:58.598Z,967.3
2023-01-17T13:06:01.221Z,967.3
2023-01-17T13:07:04.010Z,967.28
2023-01-17T13:08:06.713Z,967.36